createdAt,value
2023-07-26T00:03:48.395Z,16.81
2023-07-26T00:08:47.622Z,16.75
2023-07-26T00:13:47.721Z,16.68
2023-07-26T00:18:48.610Z,16.66
2023-07-26T00:23:48.295Z,16.64
2023-07-26T00:28:47.588Z,16.63
2023-07-26T00:33:47.601Z,16.61
2023-07-26T00:38:47.920Z,16.61
2023-07-26T00:43:47.955Z,16.64
2023-07-26T00:48:47.424Z,16.72
2023-07-26T00:53:47.559Z,16.79
2023-07-26T00:58:48.879Z,16.85
2023-07-26T01:03:50.910Z,16.89
2023-07-26T01:09:04.527Z,16.89
2023-07-26T01:14:16.217Z,16.88
2023-07-26T01:19:16.189Z,16.88
2023-07-26T01:24:15.699Z,16.86
2023-07-26T01:29:16.384Z,16.86
2023-07-26T01:34:18.739Z,16.90
2023-07-26T01:39:21.084Z,16.95
2023-07-26T01:44:20.855Z,17.01
2023-07-26T01:49:22.462Z,17.05
2023-07-26T01:54:22.909Z,17.06
2023-07-26T01:59:23.524Z,17.08
2023-07-26T02:04:23.673Z,17.12
2023-07-26T02:09:23.781Z,17.13
2023-07-26T02:14:24.561Z,17.17
2023-07-26T02:19:24.134Z,17.19
2023-07-26T02:24:24.726Z,17.20
2023-07-26T02:29:24.529Z,17.19
2023-07-26T02:34:24.713Z,17.18
2023-07-26T02:39:24.602Z,17.18
2023-07-26T02:44:25.188Z,17.20
2023-07-26T02:49:25.222Z,17.23
2023-07-26T02:54:25.143Z,17.27
2023-07-26T02:59:25.878Z,17.26
2023-07-26T03:04:25.379Z,17.21
2023-07-26T03:09:25.404Z,17.16
2023-07-26T03:14:25.088Z,17.11
2023-07-26T03:19:25.576Z,17.10
2023-07-26T03:24:25.188Z,17.06
2023-07-26T03:29:25.142Z,17.03
2023-07-26T03:34:25.015Z,17.01
2023-07-26T03:39:24.643Z,17.01
2023-07-26T03:44:24.077Z,17.00
2023-07-26T03:49:26.209Z,16.99
2023-07-26T03:54:25.928Z,17.03
2023-07-26T03:59:26.078Z,17.08
2023-07-26T04:04:25.959Z,17.13
2023-07-26T04:09:25.726Z,17.22
2023-07-26T04:14:28.319Z,17.34
2023-07-26T04:19:28.190Z,17.42
2023-07-26T04:24:28.121Z,17.41
2023-07-26T04:29:28.262Z,17.40
2023-07-26T04:34:27.990Z,17.41
2023-07-26T04:39:27.898Z,17.46
2023-07-26T04:44:27.590Z,17.58
2023-07-26T04:49:27.702Z,17.67
2023-07-26T04:54:28.362Z,17.73
2023-07-26T04:59:28.847Z,17.83
2023-07-26T05:04:29.247Z,17.96
2023-07-26T05:09:29.341Z,18.09
2023-07-26T05:14:31.727Z,18.25
2023-07-26T05:19:32.065Z,18.41
2023-07-26T05:24:32.245Z,18.58
2023-07-26T05:29:32.964Z,18.78
2023-07-26T05:34:33.138Z,18.97
2023-07-26T05:39:33.701Z,19.19
2023-07-26T05:44:34.062Z,19.49
2023-07-26T05:49:33.940Z,19.71
2023-07-26T05:54:33.710Z,19.85
2023-07-26T05:59:34.463Z,19.99
2023-07-26T06:04:35.522Z,20.20
2023-07-26T06:09:36.066Z,20.43
2023-07-26T06:14:36.956Z,20.64
2023-07-26T06:19:36.042Z,20.76
2023-07-26T06:24:36.039Z,20.89
2023-07-26T06:29:37.300Z,21.06
2023-07-26T06:34:37.301Z,21.24
2023-07-26T06:39:37.135Z,21.40
2023-07-26T06:44:36.989Z,21.54
2023-07-26T06:49:36.861Z,21.58
2023-07-26T06:54:38.597Z,21.47
2023-07-26T06:59:39.306Z,21.41
2023-07-26T07:04:40.081Z,21.46
2023-07-26T07:09:39.881Z,21.45
2023-07-26T07:14:39.812Z,21.20
2023-07-26T07:19:39.355Z,21.16
2023-07-26T07:24:41.366Z,21.36
2023-07-26T07:29:41.402Z,21.58
2023-07-26T07:34:40.608Z,21.68
2023-07-26T07:39:40.969Z,21.86
2023-07-26T07:44:40.786Z,22.06
2023-07-26T07:49:40.724Z,22.31
2023-07-26T07:54:40.734Z,22.51
2023-07-26T07:59:40.453Z,22.50
2023-07-26T08:04:43.001Z,22.60
2023-07-26T08:09:45.339Z,22.59
2023-07-26T08:14:49.283Z,22.42
2023-07-26T08:19:49.288Z,22.30
2023-07-26T08:24:48.806Z,22.44
2023-07-26T08:29:48.925Z,22.66
2023-07-26T08:34:48.646Z,22.93
2023-07-26T08:39:48.375Z,23.01
2023-07-26T08:44:52.048Z,23.04
2023-07-26T08:49:52.612Z,23.04
2023-07-26T08:54:54.914Z,22.95
2023-07-26T08:59:53.823Z,22.76
2023-07-26T09:04:54.124Z,22.54
2023-07-26T09:09:54.877Z,22.45
2023-07-26T09:15:01.162Z,22.46
2023-07-26T09:20:01.321Z,22.55
2023-07-26T09:25:01.432Z,22.67
2023-07-26T09:30:03.333Z,22.74
2023-07-26T09:35:09.079Z,22.73
2023-07-26T09:40:16.519Z,22.62
2023-07-26T09:45:27.440Z,22.56
2023-07-26T09:50:36.764Z,22.49
2023-07-26T09:55:39.799Z,22.26
2023-07-26T10:00:42.594Z,22.13
2023-07-26T10:05:48.338Z,22.01
2023-07-26T10:10:52.123Z,21.92
2023-07-26T10:15:59.062Z,21.91
2023-07-26T10:21:00.477Z,21.81
2023-07-26T10:26:02.717Z,21.76
2023-07-26T10:31:03.166Z,21.76
2023-07-26T10:36:08.962Z,21.84
2023-07-26T10:41:29.314Z,21.88
2023-07-26T10:46:33.646Z,21.91
2023-07-26T10:51:51.761Z,21.96
2023-07-26T10:57:16.541Z,21.99
2023-07-26T11:02:18.326Z,21.99
2023-07-26T11:07:18.618Z,21.95
2023-07-26T11:12:25.557Z,21.83
2023-07-26T11:17:25.570Z,21.80
2023-07-26T11:22:28.030Z,21.80
2023-07-26T11:27:27.643Z,21.79
2023-07-26T11:32:36.386Z,21.73
2023-07-26T11:37:36.356Z,21.65
2023-07-26T11:42:37.612Z,21.51
2023-07-26T11:47:40.105Z,21.27
2023-07-26T11:52:40.408Z,21.01
2023-07-26T11:57:41.566Z,20.68
2023-07-26T12:02:42.922Z,20.40
2023-07-26T12:07:45.425Z,20.04
2023-07-26T12:12:48.639Z,19.57
2023-07-26T12:18:07.448Z,19.17
2023-07-26T12:23:07.930Z,18.77
2023-07-26T12:28:09.596Z,18.48
2023-07-26T12:33:17.800Z,18.23
2023-07-26T12:38:20.885Z,18.01
2023-07-26T12:43:30.060Z,17.86
2023-07-26T12:48:32.772Z,17.70
2023-07-26T12:53:32.952Z,17.53
2023-07-26T12:58:33.152Z,17.38
2023-07-26T13:03:33.479Z,17.23
2023-07-26T13:08:33.281Z,17.07
2023-07-26T13:13:33.567Z,16.92
2023-07-26T13:18:33.679Z,16.77
2023-07-26T13:23:33.923Z,16.65
2023-07-26T13:28:34.128Z,16.55
2023-07-26T13:33:43.851Z,16.46
2023-07-26T13:38:50.758Z,16.40
2023-07-26T13:43:52.187Z,16.36
2023-07-26T13:48:52.355Z,16.35
2023-07-26T13:53:52.179Z,16.35
2023-07-26T13:58:51.154Z,16.34
2023-07-26T14:03:51.833Z,16.34
2023-07-26T14:08:52.652Z,16.29
2023-07-26T14:13:53.457Z,16.27
2023-07-26T14:18:54.161Z,16.24
2023-07-26T14:23:54.958Z,16.22
2023-07-26T14:28:55.204Z,16.22
2023-07-26T14:33:54.845Z,16.21
2023-07-26T14:38:55.030Z,16.22
2023-07-26T14:43:54.976Z,16.20
2023-07-26T14:48:54.746Z,16.19
2023-07-26T14:53:54.477Z,16.18
2023-07-26T14:58:54.042Z,16.14
2023-07-26T15:03:53.383Z,16.07
2023-07-26T15:13:57.752Z,16.00
2023-07-26T15:18:56.621Z,15.97
2023-07-26T15:23:57.518Z,15.94
2023-07-26T15:28:57.437Z,15.93
2023-07-26T15:33:57.207Z,15.90
2023-07-26T15:38:56.526Z,15.87
2023-07-26T15:44:12.149Z,15.82
2023-07-26T15:49:17.065Z,15.76
2023-07-26T15:54:16.073Z,15.69
2023-07-26T15:59:14.893Z,15.64
2023-07-26T16:24:26.097Z,15.36
2023-07-26T16:29:25.992Z,15.34
2023-07-26T16:34:25.272Z,15.33
2023-07-26T16:39:24.772Z,15.33
2023-07-26T16:44:24.358Z,15.31
2023-07-26T16:49:24.062Z,15.31
2023-07-26T16:54:23.975Z,15.30
2023-07-26T16:59:23.466Z,15.29
2023-07-26T17:04:23.913Z,15.30
2023-07-26T17:09:23.645Z,15.29
2023-07-26T17:14:22.352Z,15.28
2023-07-26T17:19:21.833Z,15.27
2023-07-26T17:24:21.678Z,15.25
2023-07-26T17:29:21.245Z,15.20
2023-07-26T17:34:20.189Z,15.15
2023-07-26T17:39:24.283Z,15.13
2023-07-26T17:44:23.672Z,15.06
2023-07-26T17:49:22.980Z,15.01
2023-07-26T17:54:24.156Z,14.97
2023-07-26T17:59:23.704Z,14.91
2023-07-26T18:04:23.908Z,14.86
2023-07-26T18:09:23.139Z,14.83
2023-07-26T18:14:23.478Z,14.82
2023-07-26T18:19:23.117Z,14.80
2023-07-26T18:24:23.714Z,14.78
2023-07-26T18:29:25.422Z,14.75
2023-07-26T18:34:26.139Z,14.73
2023-07-26T18:39:25.353Z,14.70
2023-07-26T18:44:24.806Z,14.68
2023-07-26T18:49:24.748Z,14.65
2023-07-26T18:54:24.035Z,14.65
2023-07-26T18:59:23.789Z,14.63
2023-07-26T19:04:23.340Z,14.60
2023-07-26T19:09:23.468Z,14.59
2023-07-26T19:14:25.506Z,14.58
2023-07-26T19:19:25.998Z,14.55
2023-07-26T19:24:25.026Z,14.53
2023-07-26T19:29:27.969Z,14.51
2023-07-26T19:34:28.622Z,14.49
2023-07-26T19:39:28.419Z,14.48
2023-07-26T19:44:28.096Z,14.46
2023-07-26T19:49:27.440Z,14.46
2023-07-26T19:54:27.177Z,14.45
2023-07-26T19:59:26.541Z,14.45
2023-07-26T20:04:26.433Z,14.47
2023-07-26T20:09:25.899Z,14.46
2023-07-26T20:14:25.287Z,14.46
2023-07-26T20:19:24.756Z,14.47
2023-07-26T20:24:24.655Z,14.49
2023-07-26T20:29:26.440Z,14.51
2023-07-26T20:34:25.828Z,14.52
2023-07-26T20:39:25.261Z,14.54
2023-07-26T20:44:25.600Z,14.56
2023-07-26T20:49:25.460Z,14.58
2023-07-26T20:54:25.065Z,14.60
2023-07-26T20:59:24.783Z,14.62
2023-07-26T21:04:26.900Z,14.64
2023-07-26T21:09:26.421Z,14.66
2023-07-26T21:14:25.862Z,14.69
2023-07-26T21:19:27.557Z,14.71
2023-07-26T21:24:28.596Z,14.75
2023-07-26T21:29:29.734Z,14.77
2023-07-26T21:34:29.599Z,14.79
2023-07-26T21:39:29.867Z,14.80
2023-07-26T21:44:30.428Z,14.82
2023-07-26T21:49:30.637Z,14.82
2023-07-26T21:54:33.292Z,14.83
2023-07-26T21:59:35.033Z,14.84
2023-07-26T22:04:34.721Z,14.83
2023-07-26T22:09:34.770Z,14.80
2023-07-26T22:14:33.913Z,14.78
2023-07-26T22:19:33.732Z,14.76
2023-07-26T22:24:33.166Z,14.72
2023-07-26T22:29:34.025Z,14.69
2023-07-26T22:34:34.194Z,14.65
2023-07-26T22:39:33.727Z,14.60
2023-07-26T22:44:33.387Z,14.56
2023-07-26T22:49:33.097Z,14.53
2023-07-26T22:54:32.483Z,14.51
2023-07-26T22:59:32.216Z,14.46
2023-07-26T23:04:31.616Z,14.41
2023-07-26T23:09:31.094Z,14.39
2023-07-26T23:14:31.617Z,14.37
2023-07-26T23:19:30.537Z,14.34
2023-07-26T23:24:30.661Z,14.31
2023-07-26T23:29:30.760Z,14.28
2023-07-26T23:34:30.637Z,14.23
2023-07-26T23:39:33.335Z,14.20
2023-07-26T23:44:32.541Z,14.15
2023-07-26T23:49:33.526Z,14.11
2023-07-26T23:54:32.725Z,14.07
2023-07-26T23:59:31.861Z,14.04
